createdAt,value
2018-02-14T00:02:14.731Z,16.37
2018-02-14T00:06:58.041Z,15.80
2018-02-14T00:11:41.403Z,15.90
2018-02-14T00:16:25.518Z,14.07
2018-02-14T00:21:08.847Z,14.87
2018-02-14T00:25:53.022Z,15.87
2018-02-14T00:30:36.401Z,14.77
2018-02-14T00:35:19.839Z,15.00
2018-02-14T00:40:03.165Z,14.07
2018-02-14T00:44:46.526Z,15.27
2018-02-14T00:49:29.866Z,15.77
2018-02-14T00:54:13.224Z,15.30
2018-02-14T00:58:56.573Z,17.07
2018-02-14T01:03:39.919Z,15.10
2018-02-14T01:08:23.261Z,14.37
2018-02-14T01:13:06.713Z,15.70
2018-02-14T01:17:50.107Z,14.87
2018-02-14T01:22:33.470Z,15.47
2018-02-14T01:27:17.558Z,15.83
2018-02-14T01:32:01.662Z,17.27
2018-02-14T01:36:45.046Z,15.30
2018-02-14T01:41:28.456Z,16.37
2018-02-14T01:46:11.803Z,15.67
2018-02-14T01:50:55.142Z,16.07
2018-02-14T01:55:38.482Z,15.00
2018-02-14T02:00:21.829Z,14.40
2018-02-14T02:05:05.229Z,14.23
2018-02-14T02:09:49.419Z,13.13
2018-02-14T02:14:32.788Z,13.60
2018-02-14T02:19:16.142Z,14.60
2018-02-14T02:24:00.246Z,13.60
2018-02-14T02:28:44.372Z,14.07
2018-02-14T02:33:28.457Z,13.17
2018-02-14T02:38:11.846Z,14.27
2018-02-14T02:42:55.230Z,12.67
2018-02-14T02:47:39.314Z,14.43
2018-02-14T02:52:22.722Z,13.47
2018-02-14T02:57:06.920Z,12.33
2018-02-14T03:01:50.462Z,13.27
2018-02-14T03:06:33.802Z,13.40
2018-02-14T03:11:17.142Z,12.57
2018-02-14T03:16:01.151Z,13.33
2018-02-14T03:20:44.475Z,14.67
2018-02-14T03:25:27.814Z,13.27
2018-02-14T03:30:11.181Z,12.33
2018-02-14T03:34:55.347Z,12.17
2018-02-14T03:39:38.702Z,12.03
2018-02-14T03:44:22.117Z,12.77
2018-02-14T03:49:05.483Z,11.63
2018-02-14T03:53:48.923Z,12.00
2018-02-14T03:58:32.364Z,12.30
2018-02-14T04:03:15.758Z,11.77
2018-02-14T04:07:59.118Z,11.63
2018-02-14T04:12:42.445Z,11.03
2018-02-14T04:17:26.542Z,11.60
2018-02-14T04:22:09.890Z,11.43
2018-02-14T04:26:53.226Z,11.67
2018-02-14T04:31:36.636Z,11.40
2018-02-14T04:36:19.980Z,11.03
2018-02-14T04:41:03.315Z,11.60
2018-02-14T04:45:46.614Z,12.10
2018-02-14T04:50:30.026Z,10.67
2018-02-14T04:55:14.109Z,11.50
2018-02-14T04:59:57.487Z,11.57
2018-02-14T05:04:40.825Z,11.97
2018-02-14T05:09:24.188Z,12.13
2018-02-14T05:14:07.756Z,12.30
2018-02-14T05:18:51.225Z,12.17
2018-02-14T05:23:34.545Z,12.67
2018-02-14T05:28:17.962Z,13.40
2018-02-14T05:33:01.360Z,11.87
2018-02-14T05:37:44.785Z,12.80
2018-02-14T05:42:28.120Z,13.50
2018-02-14T05:47:11.546Z,13.83
2018-02-14T05:51:54.935Z,20.87
2018-02-14T05:56:38.229Z,27.43
2018-02-14T06:01:21.634Z,14.70
2018-02-14T06:06:06.547Z,13.90
2018-02-14T06:10:50.760Z,14.10
2018-02-14T06:15:34.123Z,13.03
2018-02-14T06:20:18.290Z,13.57
2018-02-14T06:25:01.653Z,14.97
2018-02-14T06:29:45.036Z,15.00
2018-02-14T06:39:27.267Z,13.47
2018-02-14T06:44:10.629Z,13.27
2018-02-14T06:48:53.977Z,12.40
2018-02-14T06:53:37.400Z,12.77
2018-02-14T06:58:20.783Z,12.33
2018-02-14T07:03:04.183Z,13.10
2018-02-14T07:07:47.522Z,11.63
2018-02-14T07:12:32.217Z,11.90
2018-02-14T07:17:15.611Z,13.20
2018-02-14T07:22:00.685Z,11.83
2018-02-14T07:26:44.858Z,13.13
2018-02-14T07:31:28.216Z,11.70
2018-02-14T07:36:11.636Z,11.90
2018-02-14T07:40:54.988Z,12.87
2018-02-14T07:45:38.376Z,11.90
2018-02-14T07:50:22.510Z,10.87
2018-02-14T07:55:05.976Z,12.20
2018-02-14T07:59:50.107Z,13.03
2018-02-14T08:04:33.476Z,13.63
2018-02-14T08:09:16.849Z,11.23
2018-02-14T08:14:00.146Z,12.03
2018-02-14T08:18:43.490Z,12.83
2018-02-14T08:23:26.858Z,13.53
2018-02-14T08:28:11.005Z,12.30
2018-02-14T08:32:54.413Z,13.60
2018-02-14T08:37:37.835Z,13.93
2018-02-14T08:42:21.357Z,14.43
2018-02-14T08:47:04.706Z,13.10
2018-02-14T08:51:48.145Z,14.43
2018-02-14T08:56:32.307Z,16.10
2018-02-14T09:01:15.707Z,13.97
2018-02-14T09:05:59.867Z,13.37
2018-02-14T09:10:43.228Z,14.10
2018-02-14T09:15:26.582Z,14.80
2018-02-14T09:20:09.983Z,13.97
2018-02-14T09:25:11.278Z,14.63
2018-02-14T09:29:54.651Z,16.23
2018-02-14T09:39:56.528Z,11.17
2018-02-14T09:44:39.874Z,11.63
2018-02-14T09:49:23.251Z,11.73
2018-02-14T09:54:07.392Z,11.83
2018-02-14T09:58:50.768Z,13.60
2018-02-14T10:03:34.249Z,13.10
2018-02-14T10:08:18.376Z,12.67
2018-02-14T10:13:01.709Z,11.83
2018-02-14T10:17:45.076Z,12.43
2018-02-14T10:22:28.445Z,12.67
2018-02-14T10:27:11.799Z,11.80
2018-02-14T10:31:55.210Z,12.87
2018-02-14T10:36:39.474Z,12.73
2018-02-14T10:41:23.573Z,13.27
2018-02-14T10:46:06.945Z,13.00
2018-02-14T10:50:50.335Z,13.73
2018-02-14T10:55:33.828Z,12.43
2018-02-14T11:00:22.758Z,13.60
2018-02-14T11:05:11.713Z,14.03
2018-02-14T11:09:55.131Z,11.77
2018-02-14T11:14:39.246Z,12.70
2018-02-14T11:19:23.504Z,11.90
2018-02-14T11:24:07.113Z,10.57
2018-02-14T11:28:50.536Z,12.57
2018-02-14T11:33:34.638Z,11.73
2018-02-14T11:38:17.977Z,11.47
2018-02-14T11:43:01.331Z,10.03
2018-02-14T11:47:44.719Z,9.50
2018-02-14T11:52:28.147Z,9.03
2018-02-14T11:57:11.471Z,10.20
2018-02-14T12:01:55.778Z,11.73
2018-02-14T12:06:40.080Z,10.43
2018-02-14T12:11:23.844Z,10.87
2018-02-14T12:16:08.287Z,9.83
2018-02-14T12:20:51.629Z,11.73
2018-02-14T12:25:36.413Z,11.40
2018-02-14T12:30:22.012Z,10.77
2018-02-14T12:35:05.409Z,10.73
2018-02-14T12:39:49.705Z,9.73
2018-02-14T12:44:33.361Z,8.47
2018-02-14T12:49:16.682Z,6.97
2018-02-14T12:54:00.102Z,8.13
2018-02-14T12:58:43.938Z,7.63
2018-02-14T13:03:27.481Z,7.80
2018-02-14T13:08:10.832Z,6.50
2018-02-14T13:12:54.940Z,6.03
2018-02-14T13:17:39.619Z,5.40
2018-02-14T13:22:23.042Z,6.00
2018-02-14T13:27:07.035Z,5.20
2018-02-14T13:31:50.407Z,4.60
2018-02-14T13:36:33.785Z,5.67
2018-02-14T13:41:17.196Z,5.80
2018-02-14T13:46:00.634Z,5.73
2018-02-14T13:50:44.013Z,5.70
2018-02-14T13:55:27.478Z,5.83
2018-02-14T14:00:10.829Z,5.87
2018-02-14T14:04:54.245Z,6.20
2018-02-14T14:09:37.682Z,6.47
2018-02-14T14:14:21.074Z,6.60
2018-02-14T14:19:04.681Z,6.43
2018-02-14T14:23:55.628Z,6.20
2018-02-14T14:28:39.016Z,6.37
2018-02-14T14:33:43.029Z,5.63
2018-02-14T14:38:27.417Z,6.20
2018-02-14T14:43:11.243Z,7.40
2018-02-14T14:48:01.892Z,6.03
2018-02-14T14:52:50.423Z,7.20
2018-02-14T14:57:34.042Z,7.97
2018-02-14T15:02:17.605Z,7.50
2018-02-14T15:07:01.567Z,8.53
2018-02-14T15:11:48.213Z,9.00
2018-02-14T15:16:34.140Z,8.20
2018-02-14T15:21:17.792Z,9.03
2018-02-14T15:26:01.790Z,8.83
2018-02-14T15:30:45.402Z,7.40
2018-02-14T15:35:29.558Z,6.77
2018-02-14T15:40:13.716Z,6.73
2018-02-14T15:44:57.040Z,7.03
2018-02-14T15:49:40.418Z,7.43
2018-02-14T15:54:24.126Z,7.73
2018-02-14T15:59:07.466Z,8.30
2018-02-14T16:03:51.122Z,8.60
2018-02-14T16:08:34.560Z,9.53
2018-02-14T16:13:18.004Z,8.80
2018-02-14T16:18:01.446Z,11.43
2018-02-14T16:22:45.119Z,11.33
2018-02-14T16:27:29.222Z,10.77
2018-02-14T16:32:12.625Z,11.63
2018-02-14T16:36:56.009Z,12.30
2018-02-14T16:41:39.358Z,11.03
2018-02-14T16:46:22.807Z,11.67
2018-02-14T16:51:06.232Z,12.47
2018-02-14T16:55:49.579Z,13.03
2018-02-14T17:00:32.916Z,13.23
2018-02-14T17:05:16.339Z,12.90
2018-02-14T17:09:59.788Z,13.17
2018-02-14T17:14:43.143Z,13.10
2018-02-14T17:19:26.489Z,13.23
2018-02-14T17:24:09.836Z,14.27
2018-02-14T17:28:53.957Z,15.93
2018-02-14T17:33:37.305Z,14.07
2018-02-14T17:38:20.683Z,16.47
2018-02-14T17:43:04.024Z,15.73
2018-02-14T17:47:47.349Z,16.40
2018-02-14T17:52:30.723Z,17.93
2018-02-14T17:57:14.085Z,18.37
2018-02-14T18:01:58.194Z,18.83
2018-02-14T18:06:41.556Z,20.80
2018-02-14T18:11:24.922Z,20.67
2018-02-14T18:16:12.999Z,21.70
2018-02-14T18:20:56.364Z,22.77
2018-02-14T18:25:44.184Z,22.20
2018-02-14T18:30:31.933Z,22.10
2018-02-14T18:35:16.420Z,21.60
2018-02-14T18:39:59.769Z,36.27
2018-02-14T18:44:43.135Z,26.07
2018-02-14T18:49:27.300Z,22.40
2018-02-14T18:54:11.476Z,21.57
2018-02-14T18:58:55.585Z,21.63
2018-02-14T19:03:38.979Z,26.08
2018-02-14T19:08:23.103Z,31.27
2018-02-14T19:13:06.507Z,23.33
2018-02-14T19:17:49.899Z,20.07
2018-02-14T19:22:33.312Z,20.50
2018-02-14T19:27:16.741Z,19.70
2018-02-14T19:32:00.433Z,20.37
2018-02-14T19:36:44.604Z,21.50
2018-02-14T19:41:28.336Z,21.83
2018-02-14T19:46:11.979Z,20.00
2018-02-14T19:50:55.393Z,18.67
2018-02-14T19:55:39.585Z,23.47
2018-02-14T20:00:23.066Z,24.00
2018-02-14T20:05:06.534Z,21.17
2018-02-14T20:09:49.939Z,20.40
2018-02-14T20:14:33.420Z,19.90
2018-02-14T20:19:16.890Z,20.57
2018-02-14T20:24:00.351Z,19.70
2018-02-14T20:28:43.756Z,19.53
2018-02-14T20:33:27.314Z,18.27
2018-02-14T20:38:10.720Z,19.20
2018-02-14T20:42:54.202Z,18.73
2018-02-14T20:47:49.450Z,18.37
2018-02-14T20:52:40.213Z,19.97
2018-02-14T20:57:25.744Z,19.17
2018-02-14T21:02:09.291Z,19.03
2018-02-14T21:06:52.876Z,18.23
2018-02-14T21:11:36.228Z,18.80
2018-02-14T21:16:19.542Z,18.73
2018-02-14T21:21:02.883Z,19.87
2018-02-14T21:25:46.261Z,17.83
2018-02-14T21:30:29.611Z,16.90
2018-02-14T21:35:13.026Z,17.73
2018-02-14T21:39:57.141Z,17.80
2018-02-14T21:44:41.335Z,20.20
2018-02-14T21:49:24.755Z,19.70
2018-02-14T21:54:08.835Z,21.00
2018-02-14T21:58:52.200Z,21.23
2018-02-14T22:03:35.599Z,19.13
2018-02-14T22:08:19.723Z,21.27
2018-02-14T22:13:03.068Z,22.43
2018-02-14T22:17:46.449Z,19.83
2018-02-14T22:22:29.738Z,20.57
2018-02-14T22:27:13.093Z,23.90
2018-02-14T22:31:56.475Z,23.20
2018-02-14T22:36:39.845Z,22.07
2018-02-14T22:41:23.191Z,18.97
2018-02-14T22:46:06.610Z,18.47
2018-02-14T22:50:49.966Z,17.30
2018-02-14T22:55:33.319Z,18.07
2018-02-14T23:00:21.502Z,17.80
2018-02-14T23:05:05.686Z,18.50
2018-02-14T23:09:49.071Z,18.30
2018-02-14T23:14:32.409Z,17.53
2018-02-14T23:19:15.740Z,16.50
2018-02-14T23:23:59.068Z,15.73
2018-02-14T23:28:42.429Z,15.23
2018-02-14T23:33:25.856Z,15.77
2018-02-14T23:38:09.234Z,15.23
2018-02-14T23:42:52.609Z,15.90
2018-02-14T23:47:35.924Z,14.67
2018-02-14T23:52:19.293Z,13.80
2018-02-14T23:57:02.595Z,13.77
